Time;durP1;ratioP1;P1;durP2;ratioP2;P2;SDS_P1;SDS_P2;PMS_P1;PMS_P2;Temp;Humidity;BMP_temperature;BMP_pressure;BME280_temperature;BME280_humidity;BME280_pressure;Samples;Min_cycle;Max_cycle;Signal;HPM_P1;HPM_P2
2022/09/08 00:00:25;;;;;;;3.85;1.00;;;;;;;20.90;68.86;96230.84;10555684;28;20695;-27
2022/09/08 00:05:26;;;;;;;1.70;1.05;;;;;;;20.91;68.78;96231.72;10562916;28;20048;-27
2022/09/08 00:10:28;;;;;;;1.42;1.05;;;;;;;20.95;68.64;96223.13;10560289;28;20050;-28
2022/09/08 00:15:29;;;;;;;2.35;0.90;;;;;;;21.00;68.45;96222.22;10557061;28;20120;-28
2022/09/08 00:20:29;;;;;;;4.22;0.90;;;;;;;20.95;68.53;96211.25;10559186;28;20039;-28
2022/09/08 00:25:30;;;;;;;1.40;0.90;;;;;;;20.93;68.75;96204.53;10567347;28;20102;-28
2022/09/08 00:30:31;;;;;;;2.17;1.27;;;;;;;20.90;68.70;96202.84;10557005;28;20281;-30
2022/09/08 00:35:31;;;;;;;2.60;1.20;;;;;;;20.92;68.81;96207.94;10558391;28;20061;-28
2022/09/08 00:40:45;;;;;;;2.67;0.98;;;;;;;20.91;68.65;96212.19;10560548;28;20088;-27
2022/09/08 00:45:47;;;;;;;1.63;0.88;;;;;;;20.91;68.67;96212.19;10557022;28;20031;-27
2022/09/08 00:50:48;;;;;;;1.75;0.70;;;;;;;20.88;68.71;96202.06;10556925;28;20119;-28
2022/09/08 00:55:48;;;;;;;3.20;0.80;;;;;;;20.89;68.73;96196.09;10556997;27;20036;-28
2022/09/08 01:00:49;;;;;;;3.15;1.90;;;;;;;20.93;68.29;96200.28;10553376;28;20461;-27
2022/09/08 01:05:56;;;;;;;1.98;1.40;;;;;;;20.94;68.27;96193.47;10560206;28;20043;-28
2022/09/08 01:16:25;;;;;;;2.88;1.00;;;;;;;20.90;68.45;96181.69;10552003;28;20062;-28
2022/09/08 01:21:43;;;;;;;2.60;1.13;;;;;;;20.87;68.47;96195.28;10556810;28;20062;-28
2022/09/08 01:26:50;;;;;;;2.13;0.90;;;;;;;20.86;68.57;96188.53;10545246;28;20024;-27
2022/09/08 01:31:52;;;;;;;;;;;;;;;20.84;68.40;96177.50;10556430;28;20110;-27
2022/09/08 01:36:58;;;;;;;1.35;0.60;;;;;;;20.84;68.57;96158.84;10557683;28;19920;-27
2022/09/08 01:41:59;;;;;;;1.77;1.27;;;;;;;20.86;68.38;96154.59;10557817;28;20100;-28
2022/09/08 01:47:00;;;;;;;3.00;0.75;;;;;;;20.88;68.12;96147.81;10560757;27;20032;-28
2022/09/08 01:52:00;;;;;;;2.30;0.80;;;;;;;20.92;68.08;96152.81;10557146;28;20036;-28
2022/09/08 01:57:01;;;;;;;1.40;0.70;;;;;;;20.83;68.07;96155.47;10554729;28;20569;-29
2022/09/08 02:02:02;;;;;;;0.82;0.52;;;;;;;20.87;68.06;96158.84;10543674;28;20042;-27
2022/09/08 02:07:03;;;;;;;1.90;0.60;;;;;;;20.81;68.03;96164.81;10557882;28;20069;-27
2022/09/08 02:12:04;;;;;;;1.38;0.50;;;;;;;20.81;67.98;96182.63;10558712;28;20526;-27
2022/09/08 02:17:04;;;;;;;0.98;0.52;;;;;;;20.83;67.84;96206.38;10552643;28;20032;-28
2022/09/08 02:22:05;;;;;;;2.05;0.85;;;;;;;20.79;67.85;96212.38;10553659;28;20032;-27
2022/09/08 02:27:05;;;;;;;0.90;0.73;;;;;;;20.80;67.54;96203.84;10557288;28;20062;-28
2022/09/08 02:32:05;;;;;;;0.97;0.60;;;;;;;20.81;67.83;96195.34;10549257;28;20323;-27
2022/09/08 02:37:05;;;;;;;1.40;0.50;;;;;;;20.84;67.72;96190.25;10553376;28;20047;-27
2022/09/08 02:42:06;;;;;;;0.77;0.60;;;;;;;20.83;67.56;96198.75;10556620;28;20054;-27
2022/09/08 02:47:06;;;;;;;2.88;0.60;;;;;;;20.82;67.54;96199.56;10550147;28;20027;-27
2022/09/08 02:52:08;;;;;;;2.13;1.73;;;;;;;20.80;67.69;96188.59;10555469;28;20031;-27
2022/09/08 02:57:09;;;;;;;2.17;0.50;;;;;;;20.79;67.45;96197.09;10548248;28;20643;-28
2022/09/08 03:02:09;;;;;;;0.77;0.50;;;;;;;20.76;67.63;96197.16;10541517;28;20040;-27
2022/09/08 03:07:10;;;;;;;1.30;0.63;;;;;;;20.78;67.50;96205.59;10556999;28;20141;-27
2022/09/08 03:12:12;;;;;;;0.88;0.82;;;;;;;20.75;67.57;96195.47;10558356;28;20028;-28
2022/09/08 03:17:12;;;;;;;2.72;0.52;;;;;;;20.76;67.62;96202.25;10549966;28;20039;-28
2022/09/08 03:22:12;;;;;;;4.27;0.70;;;;;;;20.74;67.53;96190.41;10551260;28;20031;-27
2022/09/08 03:27:13;;;;;;;3.15;0.90;;;;;;;20.79;67.18;96191.19;10555069;28;20038;-27
2022/09/08 03:32:13;;;;;;;1.23;0.63;;;;;;;20.78;67.12;96194.56;10548440;28;20043;-27
2022/09/08 03:37:14;;;;;;;2.28;0.47;;;;;;;20.75;67.25;96190.41;10551272;28;20084;-27
2022/09/08 03:42:17;;;;;;;0.77;0.52;;;;;;;20.72;67.81;96187.88;10551017;28;20040;-27
2022/09/08 03:47:18;;;;;;;3.75;0.70;;;;;;;20.72;67.53;96194.69;10545689;28;20569;-28
2022/09/08 03:52:18;;;;;;;2.23;0.60;;;;;;;20.71;67.21;96196.38;10546712;28;20039;-28
2022/09/08 03:57:26;;;;;;;1.27;0.50;;;;;;;20.71;67.52;96186.22;10553210;28;20036;-27
2022/09/08 04:02:29;;;;;;;1.13;0.50;;;;;;;20.71;67.31;96188.75;10549776;28;20036;-28
2022/09/08 04:07:31;;;;;;;1.30;0.60;;;;;;;20.71;67.28;96188.75;10556305;28;20028;-27
2022/09/08 04:12:31;;;;;;;1.63;0.68;;;;;;;20.71;66.95;96186.22;10552490;28;20039;-27
2022/09/08 04:17:32;;;;;;;0.40;0.40;;;;;;;20.77;66.94;96190.34;10543150;28;20662;-27
2022/09/08 04:22:32;;;;;;;2.00;0.60;;;;;;;20.77;66.98;96192.91;10547019;28;20457;-27
2022/09/08 04:27:33;;;;;;;0.93;0.40;;;;;;;20.73;66.89;96189.56;10547630;28;20342;-27
2022/09/08 04:32:34;;;;;;;1.10;0.57;;;;;;;20.72;67.10;96195.53;10561529;28;20661;-27
2022/09/08 04:37:35;;;;;;;1.00;0.60;;;;;;;20.71;66.92;96193.84;10557981;28;20510;-28
2022/09/08 04:42:36;;;;;;;2.17;0.50;;;;;;;20.70;66.96;96192.16;10560135;28;20067;-27
2022/09/08 04:47:36;;;;;;;1.15;0.40;;;;;;;20.68;67.37;96208.31;10556644;28;20055;-27
2022/09/08 04:52:37;;;;;;;4.70;0.73;;;;;;;20.68;67.41;96209.16;10560027;28;20622;-27
2022/09/08 04:57:37;;;;;;;0.90;0.50;;;;;;;20.69;67.18;96217.63;10551723;28;20031;-27
2022/09/08 05:02:38;;;;;;;1.37;0.53;;;;;;;20.75;66.90;96215.00;10558845;28;20499;-28
2022/09/08 05:07:38;;;;;;;3.70;0.80;;;;;;;20.74;66.98;96219.25;10540545;28;20385;-28
2022/09/08 05:12:38;;;;;;;1.57;0.60;;;;;;;20.74;66.85;96218.41;10560236;28;20043;-27
2022/09/08 05:17:39;;;;;;;1.17;0.73;;;;;;;20.68;67.13;96218.50;10561749;28;20127;-28
2022/09/08 05:22:39;;;;;;;1.50;0.80;;;;;;;20.69;67.06;96237.97;10558046;28;20093;-28
2022/09/08 05:27:40;;;;;;;0.53;0.50;;;;;;;20.68;67.28;96239.69;10561423;28;20055;-28
2022/09/08 05:32:41;;;;;;;13.17;1.40;;;;;;;20.76;67.16;96235.31;10548628;28;20093;-27
2022/09/08 05:37:41;;;;;;;7.10;1.00;;;;;;;20.72;66.64;96233.69;10555405;28;20093;-27
2022/09/08 05:42:42;;;;;;;0.60;0.60;;;;;;;20.69;66.72;96241.38;10555108;28;20089;-28
2022/09/08 05:47:42;;;;;;;2.15;0.88;;;;;;;20.70;66.84;96248.13;10555138;28;20834;-27
2022/09/08 05:52:42;;;;;;;3.17;0.70;;;;;;;20.73;66.39;96250.63;10556660;27;20443;-28
2022/09/08 05:57:44;;;;;;;4.50;0.87;;;;;;;20.71;66.67;96259.16;10552984;28;20039;-27
2022/09/08 06:02:48;;;;;;;3.42;0.70;;;;;;;20.69;66.87;96263.41;10555086;28;20032;-27
2022/09/08 06:07:49;;;;;;;1.65;0.57;;;;;;;20.67;66.74;96250.75;10558714;28;20039;-26
2022/09/08 06:12:51;;;;;;;2.50;0.88;;;;;;;20.69;67.02;96260.88;10559414;28;20031;-28
2022/09/08 06:17:52;;;;;;;2.00;0.80;;;;;;;20.65;66.61;96259.25;10553591;28;20091;-28
2022/09/08 06:22:52;;;;;;;1.47;0.93;;;;;;;20.62;66.82;96272.84;10553682;28;20484;-28
2022/09/08 06:28:14;;;;;;;3.03;0.90;;;;;;;20.63;66.99;96279.63;10550836;28;20530;-29
2022/09/08 06:33:16;;;;;;;2.83;0.80;;;;;;;20.58;66.53;96268.69;10554619;28;20027;-27
2022/09/08 06:38:34;;;;;;;1.13;0.55;;;;;;;20.69;66.64;96283.75;10558453;28;20031;-27
2022/09/08 06:43:46;;;;;;;0.88;0.70;;;;;;;20.80;65.58;96289.53;10541704;28;20052;-27
2022/09/08 06:48:46;;;;;;;2.05;0.80;;;;;;;20.73;66.16;96293.88;10554729;28;20493;-27
2022/09/08 06:54:22;;;;;;;2.58;0.93;;;;;;;20.73;65.95;96293.88;10539822;28;20146;-27
2022/09/08 06:59:42;;;;;;;1.98;1.02;;;;;;;20.64;66.42;96283.84;10538551;28;20112;-28
2022/09/08 07:04:57;;;;;;;2.70;0.88;;;;;;;20.70;66.18;96296.47;10549447;28;20463;-28
2022/09/08 07:10:23;;;;;;;2.83;0.73;;;;;;;20.70;65.97;96305.78;10555708;28;20035;-29
2022/09/08 07:15:39;;;;;;;2.77;0.70;;;;;;;20.66;65.96;96310.13;10552577;28;20503;-28
2022/09/08 07:20:39;;;;;;;1.60;0.55;;;;;;;20.67;65.75;96304.16;10532935;28;20043;-29
2022/09/08 07:26:02;;;;;;;2.83;0.80;;;;;;;20.62;65.67;96311.00;10547320;28;20046;-27
2022/09/08 07:31:05;;;;;;;5.82;0.60;;;;;;;20.71;65.24;96315.13;10537558;28;20047;-27
2022/09/08 07:36:20;;;;;;;2.22;0.70;;;;;;;20.69;65.28;96321.91;10551632;28;20563;-28
2022/09/08 07:41:28;;;;;;;2.25;0.82;;;;;;;20.66;65.48;96322.84;10540896;28;20036;-27
2022/09/08 07:46:42;;;;;;;1.23;0.50;;;;;;;20.66;65.50;96317.75;10540604;28;20045;-29
2022/09/08 07:51:59;;;;;;;2.60;0.65;;;;;;;20.64;65.40;96322.00;10541402;28;20051;-27
2022/09/08 07:57:28;;;;;;;1.88;0.50;;;;;;;20.64;65.02;96334.72;10548445;28;20040;-28
2022/09/08 08:03:00;;;;;;;2.38;0.70;;;;;;;20.66;65.21;96333.00;10546156;28;20115;-28
2022/09/08 08:08:15;;;;;;;1.17;0.98;;;;;;;20.69;65.10;96342.28;10551655;28;20039;-27
2022/09/08 08:13:16;;;;;;;1.02;0.60;;;;;;;20.77;64.74;96348.09;10557680;28;20036;-28
2022/09/08 08:18:31;;;;;;;4.30;1.20;;;;;;;20.79;64.52;96349.75;10555490;28;20562;-28
2022/09/08 08:23:48;;;;;;;1.20;0.47;;;;;;;20.71;64.59;96366.84;10557874;28;20044;-27
2022/09/08 08:28:56;;;;;;;1.70;0.50;;;;;;;20.68;64.32;96366.88;10547169;28;20116;-27
2022/09/08 08:34:05;;;;;;;1.90;0.50;;;;;;;20.66;64.02;96378.78;10560190;28;20130;-28
2022/09/08 08:39:17;;;;;;;2.22;0.60;;;;;;;20.71;64.34;96377.00;10560158;27;20032;-29
2022/09/08 08:44:41;;;;;;;2.70;0.70;;;;;;;20.70;63.75;96370.25;10554509;28;20490;-28
2022/09/08 08:49:57;;;;;;;1.17;0.50;;;;;;;20.73;63.79;96365.09;10544612;28;20040;-27
2022/09/08 08:55:22;;;;;;;1.60;0.52;;;;;;;20.75;63.38;96360.00;10558707;28;20064;-28
2022/09/08 09:00:34;;;;;;;2.58;0.75;;;;;;;20.79;63.52;96369.28;10557181;28;20067;-28
2022/09/08 09:05:54;;;;;;;0.80;0.57;;;;;;;20.90;63.28;96372.53;10561564;28;20101;-28
2022/09/08 09:11:16;;;;;;;1.80;0.80;;;;;;;20.89;63.22;96374.22;10546148;28;20111;-28
2022/09/08 09:16:45;;;;;;;1.25;0.30;;;;;;;20.79;63.40;96366.75;10554308;28;20432;-27
2022/09/08 09:21:52;;;;;;;4.25;0.68;;;;;;;20.80;63.41;96360.78;10543826;28;20039;-28
2022/09/08 09:26:53;;;;;;;0.90;0.82;;;;;;;20.77;63.20;96359.13;10558727;28;20036;-28
2022/09/08 09:32:18;;;;;;;0.77;0.47;;;;;;;20.70;63.17;96365.16;10546158;28;20523;-28
2022/09/08 09:37:49;;;;;;;2.33;0.70;;;;;;;20.68;62.90;96366.88;10555247;28;20031;-27
2022/09/08 09:43:17;;;;;;;2.42;1.00;;;;;;;20.88;62.93;96369.19;10546568;28;20032;-28
2022/09/08 09:48:42;;;;;;;3.72;1.88;;;;;;;21.22;61.42;96366.06;10555592;28;20039;-27
2022/09/08 09:54:20;;;;;;;3.50;1.30;;;;;;;21.24;61.05;96361.78;10555507;28;20375;-28
2022/09/08 09:59:36;;;;;;;2.13;1.55;;;;;;;21.22;61.22;96355.88;10548487;28;20040;-28
2022/09/08 10:05:14;;;;;;;4.78;1.80;;;;;;;21.41;60.11;96358.97;10561012;28;20057;-27
2022/09/08 10:10:34;;;;;;;2.63;1.08;;;;;;;21.22;61.55;96365.25;10547483;28;20507;-27
2022/09/08 10:15:41;;;;;;;7.50;1.45;;;;;;;21.26;61.25;96361.75;10555368;28;20036;-28
2022/09/08 10:21:02;;;;;;;1.23;0.68;;;;;;;21.13;62.10;96373.84;10529972;28;20504;-27
2022/09/08 10:26:32;;;;;;;1.35;0.60;;;;;;;21.01;62.27;96376.59;10555638;28;20449;-27
2022/09/08 10:31:51;;;;;;;4.35;1.70;;;;;;;21.18;61.55;96372.09;10535679;28;20055;-27
2022/09/08 10:37:04;;;;;;;1.15;0.93;;;;;;;21.16;61.75;96381.47;10541836;28;20044;-27
2022/09/08 10:42:26;;;;;;;2.67;1.30;;;;;;;21.29;60.89;96377.00;10553704;28;20032;-27
2022/09/08 10:47:35;;;;;;;3.33;1.05;;;;;;;21.28;61.00;96386.34;10543150;28;20027;-28
2022/09/08 10:53:03;;;;;;;2.50;1.00;;;;;;;21.24;61.34;96384.69;10554500;28;20044;-27
2022/09/08 10:58:24;;;;;;;5.10;1.50;;;;;;;21.28;60.08;96373.63;10544118;28;20040;-27
2022/09/08 11:03:28;;;;;;;4.65;1.33;;;;;;;21.43;59.60;96373.38;10545675;28;20039;-27
2022/09/08 11:08:37;;;;;;;4.25;1.42;;;;;;;21.63;56.69;96376.38;10557170;28;20077;-29
2022/09/08 11:14:03;;;;;;;8.02;1.40;;;;;;;21.63;56.67;96373.03;10544408;28;20040;-27
2022/09/08 11:19:33;;;;;;;7.33;1.37;;;;;;;21.54;57.17;96374.00;10546047;28;20074;-28
2022/09/08 11:24:44;;;;;;;2.75;1.42;;;;;;;21.69;56.42;96361.03;10553988;28;20031;-28
2022/09/08 11:29:56;;;;;;;5.13;1.60;;;;;;;21.79;55.74;96365.09;10537978;28;20028;-28
2022/09/08 11:35:34;;;;;;;2.38;0.90;;;;;;;21.37;59.45;96362.41;10551611;28;20035;-27
2022/09/08 11:41:04;;;;;;;2.50;0.63;;;;;;;21.23;60.57;96354.19;10559619;28;20042;-27
2022/09/08 11:46:16;;;;;;;2.30;0.80;;;;;;;21.04;60.98;96363.81;10553246;28;20130;-27
2022/09/08 11:51:33;;;;;;;1.23;0.50;;;;;;;21.00;60.92;96369.84;10557858;28;20035;-27
2022/09/08 11:56:44;;;;;;;2.45;0.77;;;;;;;20.96;60.93;96358.00;10559766;28;20426;-28
2022/09/08 12:02:12;;;;;;;2.42;0.70;;;;;;;20.96;61.03;96363.09;10542754;28;20043;-27
2022/09/08 12:07:31;;;;;;;2.28;0.90;;;;;;;20.92;61.04;96355.53;10561407;28;20035;-28
2022/09/08 12:12:59;;;;;;;2.33;0.70;;;;;;;21.00;61.56;96363.88;10560955;28;20600;-28
2022/09/08 12:18:03;;;;;;;1.50;0.98;;;;;;;21.12;61.00;96372.19;10547120;28;20565;-27
2022/09/08 12:23:14;;;;;;;0.93;0.60;;;;;;;21.02;60.98;96369.78;10559781;28;20036;-28
2022/09/08 12:28:43;;;;;;;3.67;1.10;;;;;;;21.16;61.05;96355.16;10558814;28;20036;-27
2022/09/08 12:34:02;;;;;;;1.13;0.50;;;;;;;21.05;61.17;96355.31;10547618;28;20085;-27
2022/09/08 12:39:08;;;;;;;2.03;0.60;;;;;;;21.03;61.10;96356.19;10557751;28;20035;-27
2022/09/08 12:44:24;;;;;;;2.10;0.70;;;;;;;20.96;61.28;96352.91;10559567;28;20049;-27
2022/09/08 12:49:44;;;;;;;2.05;0.70;;;;;;;20.92;60.75;96363.16;10558489;28;20500;-28
2022/09/08 12:54:53;;;;;;;2.00;0.55;;;;;;;20.92;60.80;96358.06;10545112;28;20040;-27
2022/09/08 12:59:56;;;;;;;1.08;0.60;;;;;;;20.92;61.18;96360.63;10557646;28;20123;-27
2022/09/08 13:05:31;;;;;;;2.80;0.68;;;;;;;21.11;60.80;96365.41;10560154;28;20067;-28
2022/09/08 13:10:44;;;;;;;2.47;0.70;;;;;;;21.15;60.49;96359.38;10558413;28;20028;-27
2022/09/08 13:16:01;;;;;;;1.42;0.60;;;;;;;21.05;60.70;96357.84;10540028;28;20414;-28
2022/09/08 13:21:10;;;;;;;2.40;0.63;;;;;;;21.00;60.79;96353.72;10556157;28;20044;-28
2022/09/08 13:26:30;;;;;;;1.08;0.50;;;;;;;21.01;60.98;96361.34;10561372;28;20629;-28
2022/09/08 13:31:39;;;;;;;1.88;1.00;;;;;;;20.97;60.79;96359.69;10541571;28;20054;-27
2022/09/08 13:36:59;;;;;;;1.05;0.60;;;;;;;20.99;60.88;96352.84;10534568;28;20078;-28
2022/09/08 13:42:28;;;;;;;1.38;0.50;;;;;;;20.98;60.66;96360.53;10558227;28;20228;-28
2022/09/08 13:47:37;;;;;;;1.48;0.35;;;;;;;20.95;60.81;96346.16;10519650;28;20126;-29
2022/09/08 13:52:37;;;;;;;1.77;0.60;;;;;;;21.25;60.49;96345.66;10549235;28;20040;-27
2022/09/08 13:58:16;;;;;;;3.00;0.90;;;;;;;21.19;60.18;96345.75;10547861;28;20036;-28
2022/09/08 14:03:18;;;;;;;2.10;0.52;;;;;;;21.15;60.07;96340.75;10547240;28;20500;-28
2022/09/08 14:08:26;;;;;;;3.05;1.20;;;;;;;21.07;60.29;96333.22;10555735;28;20044;-27
2022/09/08 14:13:33;;;;;;;1.40;0.70;;;;;;;21.04;60.46;96328.19;10551729;28;20089;-27
2022/09/08 14:19:08;;;;;;;1.35;0.70;;;;;;;21.03;60.64;96323.09;10556906;28;20122;-27
2022/09/08 14:24:25;;;;;;;0.70;0.50;;;;;;;21.14;60.81;96326.34;10547351;28;20042;-28
2022/09/08 14:29:31;;;;;;;;;;;;;;;21.21;60.71;96320.28;10549582;28;20017;-27
2022/09/08 14:34:51;;;;;;;1.17;0.60;;;;;;;21.12;60.41;96333.13;10553531;28;20569;-28
2022/09/08 14:40:00;;;;;;;1.08;0.65;;;;;;;21.29;60.50;96316.72;10545747;28;20039;-28
2022/09/08 14:45:26;;;;;;;1.27;0.50;;;;;;;21.38;60.05;96315.75;10553316;28;20080;-27
2022/09/08 14:50:31;;;;;;;1.40;0.45;;;;;;;21.27;59.90;96317.59;10545116;27;20038;-28
2022/09/08 14:55:36;;;;;;;3.15;0.80;;;;;;;21.24;59.86;96308.31;10552681;28;20032;-28
2022/09/08 15:00:41;;;;;;;4.68;0.63;;;;;;;21.24;60.26;96310.84;10549782;28;20111;-28
2022/09/08 15:05:44;;;;;;;1.55;0.70;;;;;;;21.16;60.21;96305.09;10540402;28;20032;-27
2022/09/08 15:11:09;;;;;;;2.42;0.65;;;;;;;21.17;60.28;96301.66;10553441;28;20024;-27
2022/09/08 15:16:24;;;;;;;1.77;0.50;;;;;;;21.13;60.38;96296.66;10554882;28;20069;-28
2022/09/08 15:21:27;;;;;;;1.52;0.50;;;;;;;20.99;60.33;96296.88;10552287;28;20028;-27
2022/09/08 15:26:53;;;;;;;1.17;0.55;;;;;;;21.04;60.33;96297.63;10552713;28;20055;-26
2022/09/08 15:32:24;;;;;;;1.38;0.50;;;;;;;21.03;60.38;96293.41;10523600;28;20036;-29
2022/09/08 15:37:53;;;;;;;0.75;0.40;;;;;;;21.09;60.03;96298.41;10503967;28;20040;-28
2022/09/08 15:43:08;;;;;;;1.42;0.47;;;;;;;21.05;60.00;96301.84;10536469;28;20071;-27
2022/09/08 15:48:23;;;;;;;0.95;0.50;;;;;;;21.04;59.88;96295.09;10529310;28;20028;-28
2022/09/08 15:53:34;;;;;;;2.65;0.63;;;;;;;21.03;59.74;96311.25;10540825;28;20047;-27
2022/09/08 15:58:37;;;;;;;1.02;0.47;;;;;;;21.01;60.05;96300.25;10532971;28;20036;-27
2022/09/08 16:03:52;;;;;;;0.80;0.50;;;;;;;21.00;60.04;96297.72;10528419;28;20052;-28
2022/09/08 16:09:08;;;;;;;1.52;0.68;;;;;;;21.01;59.74;96297.69;10523575;28;20036;-27
2022/09/08 16:14:14;;;;;;;1.48;0.40;;;;;;;21.03;59.95;96303.59;10510544;28;20488;-28
2022/09/08 16:19:19;;;;;;;1.17;0.38;;;;;;;21.03;59.96;96298.50;10518618;28;20123;-28
2022/09/08 16:24:39;;;;;;;1.55;0.45;;;;;;;21.03;59.30;96303.59;10518928;28;20044;-27
2022/09/08 16:29:46;;;;;;;0.70;0.40;;;;;;;21.03;59.14;96315.47;10524226;28;20506;-28
2022/09/08 16:35:05;;;;;;;;;;;;;;;20.98;59.35;96307.09;10525691;28;20035;-27
2022/09/08 16:40:05;;;;;;;1.27;0.77;;;;;;;20.95;59.19;96299.47;10526399;28;20010;-29
2022/09/08 16:45:36;;;;;;;1.40;0.60;;;;;;;20.93;58.32;96307.16;10531563;28;20036;-30
2022/09/08 16:50:44;;;;;;;1.10;0.30;;;;;;;20.92;58.49;96305.50;10549933;28;20555;-29
2022/09/08 16:55:56;;;;;;;1.45;0.50;;;;;;;20.92;58.39;96305.50;10540723;28;20031;-28
2022/09/08 17:00:57;;;;;;;1.33;0.50;;;;;;;20.94;58.58;96300.34;10540933;27;20575;-28
2022/09/08 17:06:07;;;;;;;1.40;0.40;;;;;;;20.99;58.60;96301.94;10541305;27;20035;-28
2022/09/08 17:11:36;;;;;;;3.97;0.77;;;;;;;20.93;58.91;96296.13;10557814;28;20051;-26
2022/09/08 17:16:49;;;;;;;2.05;0.73;;;;;;;20.95;58.83;96304.56;10552791;28;20036;-26
2022/09/08 17:21:55;;;;;;;2.28;0.70;;;;;;;20.99;58.86;96307.03;10545978;28;20036;-27
2022/09/08 17:27:09;;;;;;;;;;;;;;;21.01;58.72;96305.34;10559560;28;20543;-26
2022/09/08 17:32:22;;;;;;;1.55;0.40;;;;;;;21.02;58.81;96308.69;10547401;28;20263;-26
2022/09/08 17:37:35;;;;;;;2.50;0.55;;;;;;;21.01;59.44;96305.34;10540889;28;20128;-26
2022/09/08 17:42:55;;;;;;;1.90;0.60;;;;;;;21.02;59.08;96304.47;10535483;28;20036;-26
2022/09/08 17:48:11;;;;;;;3.97;0.88;;;;;;;21.02;58.98;96298.53;10537455;28;20081;-27
2022/09/08 17:53:34;;;;;;;1.83;0.63;;;;;;;21.07;59.30;96300.13;10542268;28;20410;-26
2022/09/08 17:58:37;;;;;;;0.93;0.40;;;;;;;21.10;59.08;96309.41;10536858;28;20071;-27
2022/09/08 18:03:57;;;;;;;2.53;0.60;;;;;;;21.05;58.97;96312.03;10537136;28;20384;-27
2022/09/08 18:09:27;;;;;;;3.97;0.80;;;;;;;21.01;58.72;96310.44;10536643;28;20027;-26
2022/09/08 18:14:53;;;;;;;2.28;0.85;;;;;;;20.99;58.92;96311.31;10534916;28;20127;-27
2022/09/08 18:20:04;;;;;;;2.35;0.50;;;;;;;20.88;58.97;96316.56;10543654;28;20036;-26
2022/09/08 18:25:26;;;;;;;1.80;0.70;;;;;;;20.91;58.41;96324.16;10555439;28;20651;-26
2022/09/08 18:30:31;;;;;;;2.00;0.55;;;;;;;20.96;58.73;96327.47;10531248;28;20036;-27
2022/09/08 18:35:55;;;;;;;2.13;0.70;;;;;;;20.96;58.49;96326.63;10529715;28;20074;-26
2022/09/08 18:41:06;;;;;;;1.02;0.52;;;;;;;20.90;58.27;96332.63;10539964;28;20028;-26
2022/09/08 18:46:43;;;;;;;3.42;0.57;;;;;;;20.88;57.82;96346.28;10539716;28;20051;-27
2022/09/08 18:52:01;;;;;;;;;;;;;;;20.86;57.80;96350.53;10529566;28;20572;-27
2022/09/08 18:57:18;;;;;;;;;;;;;;;20.84;57.64;96358.16;10551508;28;19927;-26
2022/09/08 19:02:29;;;;;;;1.33;0.63;;;;;;;20.80;57.51;96356.53;10538180;28;19916;-26
2022/09/08 19:07:44;;;;;;;2.17;0.60;;;;;;;20.83;57.55;96366.69;10550324;28;20028;-27
2022/09/08 19:12:49;;;;;;;1.80;0.77;;;;;;;20.87;57.86;96367.50;10538859;28;20036;-28
2022/09/08 19:17:55;;;;;;;1.42;0.60;;;;;;;20.90;58.00;96373.34;10551052;28;20096;-27
2022/09/08 19:22:58;;;;;;;;;;;;;;;20.84;57.25;96373.44;10548778;28;20047;-25
2022/09/08 19:28:20;;;;;;;1.77;0.60;;;;;;;20.80;56.70;96374.34;10545001;28;19923;-28
2022/09/08 19:33:57;;;;;;;2.08;0.70;;;;;;;20.78;56.59;96377.75;10552116;28;20032;-26
2022/09/08 19:39:02;;;;;;;;;;;;;;;20.64;56.28;96370.31;10536936;28;20035;-26
2022/09/08 19:44:39;;;;;;;2.85;0.60;;;;;;;20.72;56.59;96381.22;10548724;28;20386;-26
2022/09/08 19:49:46;;;;;;;4.22;0.73;;;;;;;20.68;56.49;96377.06;10540545;28;20048;-27
2022/09/08 19:54:50;;;;;;;2.20;0.60;;;;;;;20.65;56.63;96374.53;10542484;28;20051;-27
2022/09/08 20:00:20;;;;;;;3.13;0.70;;;;;;;20.71;56.48;96379.56;10556750;28;20039;-26
2022/09/08 20:05:22;;;;;;;2.30;0.70;;;;;;;20.72;55.92;96378.69;10528159;28;20130;-26
2022/09/08 20:10:23;;;;;;;1.50;0.77;;;;;;;20.72;55.77;96382.94;10558425;28;20074;-27
2022/09/08 20:15:30;;;;;;;1.83;0.70;;;;;;;20.69;56.10;96378.75;10560550;28;20073;-26
2022/09/08 20:20:40;;;;;;;1.58;0.57;;;;;;;20.63;56.25;96373.72;10559590;28;20040;-26
2022/09/08 20:26:03;;;;;;;3.95;0.80;;;;;;;20.62;55.66;96379.69;10556794;28;20039;-26
2022/09/08 20:31:03;;;;;;;2.80;0.60;;;;;;;20.60;55.57;96383.09;10553265;28;20028;-27
2022/09/08 20:36:17;;;;;;;4.27;0.90;;;;;;;20.58;55.35;96378.06;10551900;28;20091;-26
2022/09/08 20:41:22;;;;;;;2.65;0.80;;;;;;;20.55;55.48;96385.72;10560357;28;20606;-26
2022/09/08 20:46:30;;;;;;;2.63;0.53;;;;;;;20.60;55.56;96391.59;10563841;28;20417;-26
2022/09/08 20:51:54;;;;;;;3.25;0.68;;;;;;;20.65;55.78;96381.34;10551643;28;20733;-26
2022/09/08 20:57:07;;;;;;;2.00;0.70;;;;;;;20.62;55.57;96387.31;10555700;28;20036;-26
2022/09/08 21:02:11;;;;;;;3.55;0.80;;;;;;;20.54;55.60;96383.22;10545148;28;20039;-26
2022/09/08 21:07:18;;;;;;;3.92;0.93;;;;;;;20.53;55.41;96389.97;10558300;28;20025;-26
2022/09/08 21:12:19;;;;;;;1.70;0.77;;;;;;;20.51;55.29;96368.81;10563691;28;20118;-26
2022/09/08 21:17:21;;;;;;;2.22;0.70;;;;;;;20.46;55.49;96368.03;10546293;28;20032;-26
2022/09/08 21:22:39;;;;;;;2.22;0.90;;;;;;;20.49;55.33;96377.34;10555659;27;20127;-27
2022/09/08 21:27:51;;;;;;;0.75;0.50;;;;;;;20.51;55.53;96368.81;10557392;28;20028;-26
2022/09/08 21:33:21;;;;;;;3.03;0.60;;;;;;;20.53;55.61;96377.25;10547877;28;20491;-26
2022/09/08 21:38:25;;;;;;;4.00;0.88;;;;;;;20.55;55.38;96383.16;10551554;28;20031;-27
2022/09/08 21:43:38;;;;;;;3.95;1.00;;;;;;;20.52;55.01;96383.22;10552718;28;20039;-27
2022/09/08 21:48:46;;;;;;;4.13;0.80;;;;;;;20.50;55.38;96379.88;10556157;28;20035;-26
2022/09/08 21:53:53;;;;;;;1.77;0.70;;;;;;;20.50;55.19;96384.09;10550202;28;20119;-27
2022/09/08 21:59:17;;;;;;;2.55;0.95;;;;;;;20.49;55.14;96384.97;10548266;28;20092;-26
2022/09/08 22:04:42;;;;;;;2.70;0.70;;;;;;;20.48;54.96;96378.19;10560977;28;20051;-26
2022/09/08 22:09:47;;;;;;;2.28;0.60;;;;;;;20.42;55.27;96389.28;10552714;28;20521;-26
2022/09/08 22:15:12;;;;;;;2.03;0.90;;;;;;;20.43;55.16;96385.88;10551800;28;20059;-26
2022/09/08 22:20:23;;;;;;;2.00;0.60;;;;;;;20.45;55.23;96379.06;10552537;28;20059;-27
2022/09/08 22:26:01;;;;;;;1.33;0.70;;;;;;;20.52;55.41;96385.75;10556208;28;20576;-27
2022/09/08 22:31:36;;;;;;;1.48;0.60;;;;;;;20.48;55.08;96376.47;10552899;28;20123;-26
2022/09/08 22:36:56;;;;;;;1.65;0.65;;;;;;;20.45;54.85;96379.06;10550575;28;20032;-26
2022/09/08 22:42:04;;;;;;;1.20;0.50;;;;;;;20.42;55.11;96381.66;10543513;28;20036;-26
2022/09/08 22:47:39;;;;;;;2.03;0.65;;;;;;;20.44;55.05;96374.84;10548348;28;20490;-26
2022/09/08 22:52:46;;;;;;;2.75;0.80;;;;;;;20.46;55.11;96373.13;10533854;28;20040;-25
2022/09/08 22:58:01;;;;;;;1.10;0.52;;;;;;;20.43;55.05;96375.72;10552818;28;20032;-27
2022/09/08 23:03:24;;;;;;;2.90;0.80;;;;;;;20.44;55.10;96372.31;10536759;28;20105;-26
2022/09/08 23:08:40;;;;;;;1.98;0.57;;;;;;;20.45;55.26;96368.91;10552162;28;20069;-26
2022/09/08 23:13:46;;;;;;;3.42;0.93;;;;;;;20.51;55.05;96368.81;10532880;28;20056;-26
2022/09/08 23:18:52;;;;;;;6.32;0.55;;;;;;;20.48;55.24;96371.38;10554120;28;20768;-26
2022/09/08 23:23:55;;;;;;;1.67;0.50;;;;;;;20.42;55.32;96368.94;10552959;28;20049;-25
2022/09/08 23:29:22;;;;;;;1.92;0.70;;;;;;;20.42;55.41;96363.00;10552910;28;20609;-26
2022/09/08 23:34:52;;;;;;;0.83;0.57;;;;;;;20.42;55.20;96369.81;10551706;28;20047;-26
2022/09/08 23:40:05;;;;;;;7.70;1.50;;;;;;;20.37;55.53;96353.75;10542204;28;20115;-27
2022/09/08 23:45:20;;;;;;;2.28;0.70;;;;;;;20.42;55.36;96365.56;10553998;28;20023;-26
2022/09/08 23:50:22;;;;;;;1.45;0.45;;;;;;;20.38;55.22;96365.63;10545587;28;20024;-26
2022/09/08 23:55:24;;;;;;;4.82;0.85;;;;;;;20.42;55.48;96359.66;10551466;28;20414;-26
